St. Anthony, St. Anthony Airport (CYAY)

NameSt. Anthony Airport
CitySt. Anthony
CountryCanada
ICAOCYAY
IATAYAY
Altitude33 m
CoordinatesGoogle Map
Live Air TrafficLiveATC.net
METARCYAY 261000Z AUTO 23010G16KT 9SM FEW080 OVC094 12/06 A3018 RMK SLP222
2019-06-26 10:00:00 Wind: Southwest (230°) 5.14 m/s - Visibility: 14484.06 m - Temperature: 12 °C - Dew point: 6 °C - Humidity: 67% - Pressure: 1022.01 hPa
Statistics

The table below shows the detailed information of all flights to/from St. Anthony, St. Anthony Airport (CYAY).